createdAt,value
2022-08-01T00:00:50.737Z,1.60
2022-08-01T00:03:52.613Z,1.50
2022-08-01T00:06:54.624Z,1.63
2022-08-01T00:09:56.411Z,1.75
2022-08-01T00:12:58.159Z,2.00
2022-08-01T00:16:00.076Z,1.58
2022-08-01T00:19:02.059Z,1.58
2022-08-01T00:22:04.165Z,1.40
2022-08-01T00:25:07.381Z,1.83
2022-08-01T00:28:09.782Z,1.80
2022-08-01T00:31:11.619Z,1.50
2022-08-01T00:34:13.789Z,1.80
2022-08-01T00:37:16.156Z,1.90
2022-08-01T00:40:18.107Z,1.67
2022-08-01T00:43:20.018Z,1.77
2022-08-01T00:46:23.387Z,1.48
2022-08-01T00:52:27.099Z,1.20
2022-08-01T00:55:30.376Z,1.60
2022-08-01T00:58:33.330Z,1.45
2022-08-01T01:01:39.162Z,1.45
2022-08-01T01:04:42.054Z,1.67
2022-08-01T01:08:07.948Z,1.92
2022-08-01T01:11:26.379Z,1.58
2022-08-01T01:14:47.692Z,1.60
2022-08-01T01:18:01.111Z,1.63
2022-08-01T01:21:15.008Z,1.60
2022-08-01T01:24:41.756Z,1.70
2022-08-01T01:28:01.816Z,1.60
2022-08-01T01:31:08.187Z,1.60
2022-08-01T01:34:16.775Z,1.52
2022-08-01T01:37:24.126Z,1.42
2022-08-01T01:40:27.134Z,1.70
2022-08-01T01:43:33.478Z,1.60
2022-08-01T01:46:37.684Z,1.55
2022-08-01T01:49:42.603Z,1.70
2022-08-01T01:52:46.328Z,1.70
2022-08-01T01:55:53.033Z,1.45
2022-08-01T01:58:58.769Z,1.73
2022-08-01T02:02:05.823Z,1.75
2022-08-01T02:05:11.047Z,1.67
2022-08-01T02:08:16.634Z,1.52
2022-08-01T02:11:19.339Z,1.55
2022-08-01T02:14:22.424Z,1.70
2022-08-01T02:17:25.663Z,1.70
2022-08-01T02:20:30.321Z,1.70
2022-08-01T02:23:38.191Z,1.50
2022-08-01T02:26:47.560Z,1.70
2022-08-01T02:30:01.315Z,1.80
2022-08-01T02:33:15.585Z,1.83
2022-08-01T02:36:29.705Z,2.20
2022-08-01T02:39:37.829Z,1.88
2022-08-01T02:42:43.882Z,1.90
2022-08-01T02:45:52.661Z,1.70
2022-08-01T02:48:56.531Z,2.20
2022-08-01T02:52:00.422Z,1.80
2022-08-01T02:55:03.027Z,1.90
2022-08-01T02:58:07.689Z,2.20
2022-08-01T03:01:11.478Z,2.17
2022-08-01T03:04:14.376Z,2.10
2022-08-01T03:07:17.611Z,1.85
2022-08-01T03:10:22.296Z,1.92
2022-08-01T03:13:26.450Z,2.10
2022-08-01T03:16:29.313Z,2.13
2022-08-01T03:19:32.563Z,2.55
2022-08-01T03:22:35.927Z,2.58
2022-08-01T03:31:46.183Z,2.13
2022-08-01T03:38:15.245Z,2.20
2022-08-01T03:41:22.208Z,2.70
2022-08-01T03:44:28.476Z,2.78
2022-08-01T03:47:34.360Z,2.80
2022-08-01T03:50:45.015Z,2.75
2022-08-01T03:53:48.369Z,2.90
2022-08-01T03:59:53.501Z,3.10
2022-08-01T04:02:55.561Z,2.97
2022-08-01T04:05:57.378Z,3.30
2022-08-01T04:08:59.610Z,3.00
2022-08-01T04:12:01.803Z,3.42
2022-08-01T04:15:15.020Z,3.40
2022-08-01T04:18:16.978Z,3.65
2022-08-01T04:21:25.435Z,3.47
2022-08-01T04:24:31.172Z,3.80
2022-08-01T04:27:50.293Z,3.55
2022-08-01T04:30:59.868Z,3.60
2022-08-01T04:34:06.697Z,3.08
2022-08-01T04:37:11.371Z,3.50
2022-08-01T04:40:17.119Z,3.65
2022-08-01T04:43:20.025Z,3.30
2022-08-01T04:46:23.326Z,3.40
2022-08-01T04:49:25.496Z,3.63
2022-08-01T04:52:34.480Z,3.90
2022-08-01T04:55:36.682Z,3.60
2022-08-01T04:58:38.650Z,3.22
2022-08-01T05:01:40.622Z,3.10
2022-08-01T05:04:44.732Z,3.80
2022-08-01T05:07:46.649Z,3.80
2022-08-01T05:10:48.672Z,3.55
2022-08-01T05:13:50.426Z,3.70
2022-08-01T05:16:52.848Z,4.03
2022-08-01T05:19:54.954Z,3.43
2022-08-01T05:22:56.858Z,4.03
2022-08-01T05:25:59.596Z,4.30
2022-08-01T05:29:01.676Z,4.80
2022-08-01T05:32:04.284Z,4.47
2022-08-01T05:35:07.746Z,5.47
2022-08-01T05:38:09.479Z,4.38
2022-08-01T05:41:16.144Z,5.07
2022-08-01T05:44:18.002Z,4.75
2022-08-01T05:47:19.857Z,4.80
2022-08-01T05:50:21.658Z,4.80
2022-08-01T05:53:23.627Z,4.90
2022-08-01T05:56:29.335Z,4.63
2022-08-01T05:59:33.771Z,4.43
2022-08-01T06:02:35.661Z,4.43
2022-08-01T06:05:37.722Z,4.32
2022-08-01T06:08:39.529Z,4.43
2022-08-01T06:11:41.666Z,4.70
2022-08-01T06:14:43.666Z,5.18
2022-08-01T06:17:45.675Z,5.32
2022-08-01T06:20:47.910Z,4.63
2022-08-01T06:23:49.714Z,4.80
2022-08-01T06:26:51.754Z,4.32
2022-08-01T06:29:57.495Z,4.53
2022-08-01T06:33:01.001Z,4.97
2022-08-01T06:36:03.595Z,5.07
2022-08-01T06:39:05.430Z,5.20
2022-08-01T06:42:07.687Z,5.10
2022-08-01T06:45:11.601Z,5.20
2022-08-01T06:48:13.408Z,5.40
2022-08-01T06:51:17.835Z,5.07
2022-08-01T06:54:19.714Z,5.13
2022-08-01T06:57:21.482Z,5.80
2022-08-01T07:00:25.457Z,6.80
2022-08-01T07:03:53.430Z,7.28
2022-08-01T07:06:50.161Z,8.80
2022-08-01T07:09:51.915Z,10.75
2022-08-01T07:12:55.330Z,10.80
2022-08-01T07:15:57.451Z,9.73
2022-08-01T07:18:59.221Z,10.07
2022-08-01T07:22:01.057Z,10.60
2022-08-01T07:25:07.338Z,9.43
2022-08-01T07:31:11.261Z,8.50
2022-08-01T07:34:13.477Z,8.65
2022-08-01T07:37:15.655Z,8.55
2022-08-01T07:40:20.586Z,8.90
2022-08-01T07:43:22.349Z,9.00
2022-08-01T07:46:24.301Z,8.98
2022-08-01T07:49:26.341Z,8.35
2022-08-01T07:52:28.295Z,7.85
2022-08-01T07:55:30.251Z,6.78
2022-08-01T07:58:32.241Z,7.32
2022-08-01T08:01:34.225Z,6.80
2022-08-01T08:04:36.086Z,7.05
2022-08-01T08:07:38.390Z,6.55
2022-08-01T08:10:40.114Z,5.60
2022-08-01T08:13:43.185Z,5.10
2022-08-01T08:16:45.875Z,5.47
2022-08-01T08:19:47.962Z,5.80
2022-08-01T08:22:49.772Z,5.97
2022-08-01T08:25:51.793Z,6.68
2022-08-01T08:28:53.503Z,5.90
2022-08-01T08:32:03.462Z,6.95
2022-08-01T08:35:07.657Z,7.38
2022-08-01T08:38:09.750Z,6.80
2022-08-01T08:41:16.807Z,8.00
2022-08-01T08:44:21.226Z,9.30
2022-08-01T08:47:24.887Z,9.05
2022-08-01T08:50:27.371Z,8.68
2022-08-01T08:53:34.790Z,8.60
2022-08-01T08:56:38.385Z,8.63
2022-08-01T09:02:44.351Z,8.35
2022-08-01T09:05:46.447Z,8.20
2022-08-01T09:08:48.783Z,8.27
2022-08-01T09:11:54.891Z,8.52
2022-08-01T09:15:02.370Z,8.27
2022-08-01T09:18:05.221Z,8.30
2022-08-01T09:21:07.055Z,7.88
2022-08-01T09:24:16.707Z,7.55
2022-08-01T09:27:25.012Z,8.05
2022-08-01T09:30:27.053Z,7.47
2022-08-01T09:33:51.516Z,8.38
2022-08-01T09:37:02.690Z,7.63
2022-08-01T09:40:05.136Z,6.78
2022-08-01T09:43:14.813Z,6.83
2022-08-01T09:46:17.939Z,6.07
2022-08-01T09:49:50.641Z,6.45
2022-08-01T09:52:57.939Z,8.02
2022-08-01T09:56:13.263Z,7.93
2022-08-01T09:59:16.825Z,9.88
2022-08-01T10:02:38.209Z,4.63
2022-08-01T10:05:43.872Z,4.22
2022-08-01T10:08:49.521Z,4.88
2022-08-01T10:11:51.663Z,16.52
2022-08-01T10:14:56.316Z,4.22
2022-08-01T10:18:02.008Z,4.15
2022-08-01T10:21:10.793Z,3.95
2022-08-01T10:24:13.568Z,3.75
2022-08-01T10:27:24.273Z,4.30
2022-08-01T10:30:39.318Z,4.93
2022-08-01T10:33:52.528Z,5.45
2022-08-01T10:36:55.485Z,4.50
2022-08-01T10:40:27.292Z,3.97
2022-08-01T10:43:21.914Z,4.03
2022-08-01T10:46:24.664Z,5.55
2022-08-01T10:49:31.595Z,3.97
2022-08-01T10:52:39.682Z,4.00
2022-08-01T10:56:04.159Z,3.17
2022-08-01T10:59:11.591Z,3.75
2022-08-01T11:02:32.262Z,3.20
2022-08-01T11:05:37.751Z,3.28
2022-08-01T11:08:40.199Z,3.55
2022-08-01T11:12:06.342Z,3.25
2022-08-01T11:15:11.226Z,3.25
2022-08-01T11:18:29.819Z,4.00
2022-08-01T11:21:59.109Z,3.28
2022-08-01T11:25:03.701Z,2.83
2022-08-01T11:28:28.634Z,2.75
2022-08-01T11:31:37.681Z,3.08
2022-08-01T11:34:56.842Z,2.90
2022-08-01T11:38:29.306Z,2.75
2022-08-01T11:41:37.242Z,2.28
2022-08-01T11:44:51.748Z,2.20
2022-08-01T11:47:54.060Z,1.67
2022-08-01T11:50:57.249Z,2.13
2022-08-01T11:53:59.958Z,8.93
2022-08-01T11:57:06.098Z,2.25
2022-08-01T12:00:17.875Z,1.98
2022-08-01T12:03:34.188Z,1.70
2022-08-01T12:06:36.412Z,1.92
2022-08-01T12:09:38.162Z,1.98
2022-08-01T12:12:56.793Z,1.70
2022-08-01T12:16:08.510Z,1.98
2022-08-01T12:19:11.867Z,1.80
2022-08-01T12:22:14.957Z,1.63
2022-08-01T12:25:18.448Z,1.90
2022-08-01T12:28:20.362Z,1.90
2022-08-01T12:31:32.891Z,1.50
2022-08-01T12:34:35.502Z,1.58
2022-08-01T12:37:42.121Z,1.70
2022-08-01T12:40:47.452Z,1.60
2022-08-01T12:43:53.462Z,1.67
2022-08-01T12:46:55.986Z,1.48
2022-08-01T12:49:57.737Z,1.83
2022-08-01T12:53:00.069Z,1.10
2022-08-01T12:56:01.872Z,1.30
2022-08-01T12:59:21.303Z,1.33
2022-08-01T13:02:33.215Z,1.60
2022-08-01T13:05:53.156Z,1.30
2022-08-01T13:08:55.031Z,1.60
2022-08-01T13:12:04.103Z,1.63
2022-08-01T13:15:28.696Z,1.98
2022-08-01T13:18:33.493Z,1.70
2022-08-01T13:21:52.463Z,1.75
2022-08-01T13:25:19.793Z,1.75
2022-08-01T13:28:28.043Z,1.80
2022-08-01T13:31:37.576Z,1.70
2022-08-01T13:34:39.935Z,1.63
2022-08-01T13:37:43.247Z,1.70
2022-08-01T13:43:58.617Z,1.48
2022-08-01T13:47:01.383Z,1.40
2022-08-01T13:50:04.049Z,1.42
2022-08-01T13:53:06.199Z,1.23
2022-08-01T13:56:08.218Z,1.48
2022-08-01T13:59:10.453Z,1.40
2022-08-01T14:02:12.279Z,1.63
2022-08-01T14:05:14.117Z,1.80
2022-08-01T14:08:16.557Z,1.80
2022-08-01T14:11:18.851Z,1.50
2022-08-01T14:14:23.120Z,1.92
2022-08-01T14:17:24.882Z,1.08
2022-08-01T14:20:27.109Z,1.23
2022-08-01T14:23:29.126Z,1.40
2022-08-01T14:26:31.218Z,1.40
2022-08-01T14:30:02.350Z,1.50
2022-08-01T14:32:54.660Z,1.50
2022-08-01T14:36:05.203Z,1.90
2022-08-01T14:39:08.410Z,1.45
2022-08-01T14:42:16.685Z,2.88
2022-08-01T14:45:18.998Z,1.92
2022-08-01T14:48:20.736Z,1.48
2022-08-01T14:51:22.640Z,1.80
2022-08-01T14:54:29.201Z,1.45
2022-08-01T14:57:31.839Z,1.42
2022-08-01T15:00:33.894Z,1.87
2022-08-01T15:03:35.787Z,1.60
2022-08-01T15:06:37.796Z,4.43
2022-08-01T15:09:40.295Z,1.85
2022-08-01T15:12:50.387Z,2.75
2022-08-01T15:15:52.724Z,2.00
2022-08-01T15:18:54.562Z,1.50
2022-08-01T15:21:56.275Z,1.38
2022-08-01T15:25:00.325Z,2.30
2022-08-01T15:28:02.167Z,1.58
2022-08-01T15:31:03.872Z,1.50
2022-08-01T15:37:45.747Z,1.60
2022-08-01T15:40:47.462Z,1.73
2022-08-01T15:43:55.717Z,1.98
2022-08-01T15:46:58.266Z,1.50
2022-08-01T15:50:02.363Z,2.30
2022-08-01T15:53:04.450Z,1.70
2022-08-01T15:56:06.293Z,1.67
2022-08-01T15:59:08.395Z,1.63
2022-08-01T16:02:10.816Z,1.38
2022-08-01T16:05:13.075Z,1.40
2022-08-01T16:08:19.007Z,1.50
2022-08-01T16:11:21.212Z,1.60
2022-08-01T16:14:23.043Z,1.70
2022-08-01T16:17:25.042Z,1.42
2022-08-01T16:20:26.925Z,1.73
2022-08-01T16:23:29.129Z,1.63
2022-08-01T16:26:31.160Z,1.52
2022-08-01T16:29:34.113Z,1.50
2022-08-01T16:32:54.302Z,1.40
2022-08-01T16:35:58.890Z,1.70
2022-08-01T16:39:01.427Z,1.73
2022-08-01T16:42:03.286Z,1.60
2022-08-01T16:45:08.640Z,1.60
2022-08-01T16:48:16.081Z,1.90
2022-08-01T16:54:25.185Z,1.30
2022-08-01T16:57:28.581Z,1.67
2022-08-01T17:00:30.455Z,1.30
2022-08-01T17:03:51.435Z,1.30
2022-08-01T17:06:53.884Z,1.70
2022-08-01T17:09:55.831Z,1.52
2022-08-01T17:12:57.681Z,1.58
2022-08-01T17:15:59.594Z,1.55
2022-08-01T17:19:02.077Z,1.70
2022-08-01T17:22:04.316Z,1.80
2022-08-01T17:25:09.050Z,1.63
2022-08-01T17:28:18.220Z,1.85
2022-08-01T17:31:20.200Z,1.60
2022-08-01T17:34:22.293Z,1.63
2022-08-01T17:37:25.602Z,1.77
2022-08-01T17:43:44.607Z,1.63
2022-08-01T17:46:46.804Z,2.20
2022-08-01T17:49:56.435Z,1.83
2022-08-01T17:52:58.615Z,1.60
2022-08-01T17:56:02.317Z,1.80
2022-08-01T17:59:04.233Z,1.83
2022-08-01T18:02:06.211Z,2.03
2022-08-01T18:05:10.655Z,1.98
2022-08-01T18:08:13.168Z,2.15
2022-08-01T18:11:17.423Z,1.73
2022-08-01T18:14:19.231Z,1.60
2022-08-01T18:17:21.131Z,1.65
2022-08-01T18:20:22.991Z,1.50
2022-08-01T18:23:24.740Z,1.58
2022-08-01T18:26:26.808Z,1.90
2022-08-01T18:29:47.347Z,1.98
2022-08-01T18:32:50.089Z,1.88
2022-08-01T18:35:53.935Z,1.80
2022-08-01T18:38:57.384Z,2.35
2022-08-01T18:42:01.192Z,1.60
2022-08-01T18:45:03.530Z,1.83
2022-08-01T18:48:05.880Z,1.77
2022-08-01T18:51:08.490Z,1.98
2022-08-01T18:54:14.773Z,1.80
2022-08-01T19:00:22.801Z,1.50
2022-08-01T19:03:24.743Z,2.05
2022-08-01T19:06:27.258Z,1.92
2022-08-01T19:09:29.071Z,1.98
2022-08-01T19:12:30.962Z,1.90
2022-08-01T19:15:32.830Z,1.77
2022-08-01T19:18:35.032Z,2.00
2022-08-01T19:21:42.800Z,2.28
2022-08-01T19:24:46.756Z,2.15
2022-08-01T19:27:50.480Z,2.22
2022-08-01T19:30:54.196Z,2.03
2022-08-01T19:33:57.850Z,2.10
2022-08-01T19:37:00.122Z,1.90
2022-08-01T19:40:02.040Z,1.98
2022-08-01T19:43:06.161Z,2.00
2022-08-01T19:46:17.232Z,2.10
2022-08-01T19:49:21.741Z,1.90
2022-08-01T19:52:26.627Z,2.55
2022-08-01T19:55:30.870Z,2.00
2022-08-01T19:58:52.681Z,2.50
2022-08-01T20:02:02.582Z,1.80
2022-08-01T20:05:04.782Z,1.80
2022-08-01T20:08:07.592Z,3.10
2022-08-01T20:11:13.732Z,2.33
2022-08-01T20:14:20.907Z,2.40
2022-08-01T20:17:23.839Z,2.00
2022-08-01T20:20:26.498Z,2.30
2022-08-01T20:23:31.142Z,2.28
2022-08-01T20:26:33.731Z,2.42
2022-08-01T20:29:37.033Z,2.10
2022-08-01T20:35:53.061Z,1.88
2022-08-01T20:38:57.502Z,2.30
2022-08-01T20:42:01.283Z,3.10
2022-08-01T20:45:04.838Z,3.55
2022-08-01T20:48:08.848Z,2.67
2022-08-01T20:51:16.828Z,2.40
2022-08-01T20:54:19.363Z,2.95
2022-08-01T20:57:27.521Z,2.53
2022-08-01T21:00:30.747Z,2.78
2022-08-01T21:07:03.305Z,2.75
2022-08-01T21:10:11.542Z,3.60
2022-08-01T21:13:20.568Z,3.28
2022-08-01T21:16:29.779Z,3.08
2022-08-01T21:19:33.458Z,3.55
2022-08-01T21:23:01.395Z,3.25
2022-08-01T21:26:04.538Z,3.15
2022-08-01T21:29:07.670Z,2.78
2022-08-01T21:32:15.365Z,2.85
2022-08-01T21:35:20.013Z,3.08
2022-08-01T21:38:22.930Z,3.40
2022-08-01T21:41:56.777Z,3.40
2022-08-01T21:44:52.874Z,3.20
2022-08-01T21:47:56.640Z,3.17
2022-08-01T21:51:01.307Z,3.33
2022-08-01T21:54:41.679Z,3.30
2022-08-01T21:58:22.604Z,3.25
2022-08-01T22:01:50.004Z,3.15
2022-08-01T22:05:05.620Z,3.20
2022-08-01T22:08:09.759Z,3.20
2022-08-01T22:11:14.561Z,3.35
2022-08-01T22:14:18.442Z,3.42
2022-08-01T22:17:22.930Z,3.45
2022-08-01T22:20:27.580Z,3.72
2022-08-01T22:23:29.831Z,3.58
2022-08-01T22:26:36.071Z,3.60
2022-08-01T22:29:38.063Z,3.33
2022-08-01T22:32:42.140Z,3.58
2022-08-01T22:35:50.510Z,3.65
2022-08-01T22:38:52.573Z,3.30
2022-08-01T22:42:01.299Z,3.45
2022-08-01T22:45:24.891Z,3.15
2022-08-01T22:48:36.831Z,3.70
2022-08-01T22:51:55.375Z,3.45
2022-08-01T22:55:07.912Z,3.20
2022-08-01T22:58:13.704Z,3.63
2022-08-01T23:01:22.563Z,3.83
2022-08-01T23:04:37.361Z,3.97
2022-08-01T23:07:44.019Z,3.33
2022-08-01T23:10:47.045Z,3.55
2022-08-01T23:13:51.576Z,3.47
2022-08-01T23:16:54.707Z,3.33
2022-08-01T23:20:03.373Z,3.42
2022-08-01T23:23:06.333Z,3.50
2022-08-01T23:26:10.674Z,3.30
2022-08-01T23:29:12.610Z,3.70
2022-08-01T23:32:15.796Z,3.50
2022-08-01T23:35:18.369Z,3.70
2022-08-01T23:38:20.703Z,3.47
2022-08-01T23:41:22.679Z,3.20
2022-08-01T23:44:24.596Z,3.28
2022-08-01T23:47:26.919Z,4.05
2022-08-01T23:50:28.900Z,3.47
2022-08-01T23:53:32.225Z,3.72
2022-08-01T23:56:33.998Z,3.20
2022-08-01T23:59:52.877Z,3.45
